KBJJ/BJJ METAR and TAF weather

Enter ICAO airport designator
Station Type Date Time Source
KBJJ METAR 2018/01/24 07:06 UTC NOAA

KBJJ 240706Z AUTO 28011KT 10SM BKN014 BKN021 OVC026 M01/M03 A3001 RMK AO2 T10111028


Station Type Date Time Source
KBJJ Decoded METAR 2018/01/24 07:06 UTC NOAA

WOOSTER WAYNE COUNTY AIRPORT, OH, United States (KBJJ) 40-52N 81-53W 343M
Jan 24, 2018 - 02:06 AM EST / 2018.01.24 0706 UTC
Wind: from the W (280 degrees) at 13 MPH (11 KT):0
Visibility: 10 mile(s):0
Sky conditions: overcast
Temperature: 30.0 F (-1.1 C)
Windchill: 19 F (-7 C):1
Dew Point: 27.0 F (-2.8 C)
Relative Humidity: 88%
Pressure (altimeter): 30.01 in. Hg (1016 hPa)
ob: KBJJ 240706Z AUTO 28011KT 10SM BKN014 BKN021 OVC026 M01/M03 A3001 RMK AO2 T10111028
cycle: 7

Station Type Date Time Source
KBJJ TAF UTC NOAA

Error!


Example: see airport list